Green Lofoten — P3MG8 — position and weather

sailwx.info

Track history (hours):
 
Tides and Currents Weather Stations Pressure Air Temp Water Temp Dewpoint Dewpoint Depression Visibility Wind Speed Wind Dir Waves Ship Positions

Green Lofoten

Last reported at 2017-Jun-26 22:30 UTC. Time now 2017-Jun-26 22:37 UTC.
Position N 59°52' E 030°13'.

Length 98 m; draft 5.6 m.

Type: Ship. MMSI: 212857000.

Date/timePositionNaut miles runAvg speedWind from/ knotsBaromVisibWave heightAir tempDewpointWater temp
2017-Jun-26 22:30N 59°52' E 030°13'0 0.0
2017-Jun-26 22:00N 59°52' E 030°13'0 0.0
2017-Jun-26 21:30N 59°52' E 030°13'0 0.0
2017-Jun-26 21:00N 59°52' E 030°13'0 0.0
2017-Jun-26 20:30N 59°52' E 030°13'0 0.0
2017-Jun-26 20:00N 59°52' E 030°13'0 0.0
2017-Jun-26 19:30N 59°52' E 030°13'0 0.0
2017-Jun-26 19:00N 59°52' E 030°13'0 0.0
2017-Jun-26 18:30N 59°52' E 030°13'0 0.0
2017-Jun-26 18:00N 59°52' E 030°13'0 0.0
2017-Jun-26 17:30N 59°52' E 030°13'0 0.0
2017-Jun-26 17:00N 59°52' E 030°13'0 0.0
2017-Jun-26 16:30N 59°52' E 030°13'0 0.0
2017-Jun-26 16:00N 59°52' E 030°13'0 0.0
2017-Jun-26 15:30N 59°52' E 030°13'0 0.0
2017-Jun-26 15:01N 59°52' E 030°13'0 0.0
2017-Jun-26 14:30N 59°52' E 030°13'0 0.0
2017-Jun-26 13:30N 59°52' E 030°13'0 0.0
2017-Jun-26 13:00N 59°52' E 030°13'0 0.0
2017-Jun-26 12:30N 59°52' E 030°13'0 0.0
2017-Jun-26 12:00N 59°52' E 030°13'0 0.0
2017-Jun-26 11:30N 59°52' E 030°13'0 0.0
2017-Jun-26 11:00N 59°52' E 030°13'0 0.0
2017-Jun-26 10:30N 59°52' E 030°13'0 0.0
2017-Jun-26 10:00N 59°52' E 030°13'0 0.0
2017-Jun-26 09:30N 59°52' E 030°13'0 0.0
2017-Jun-26 09:00N 59°52' E 030°13'0 0.0
2017-Jun-26 08:31N 59°52' E 030°13'0 0.0
2017-Jun-26 08:00N 59°52' E 030°13'0 0.0
2017-Jun-26 07:30N 59°52' E 030°13'0 0.0
2017-Jun-26 07:00N 59°52' E 030°13'0 0.0
2017-Jun-26 06:30N 59°52' E 030°13'0 0.0
2017-Jun-26 06:00N 59°52' E 030°13'0 0.0
2017-Jun-26 05:30N 59°52' E 030°13'0 0.0
2017-Jun-26 05:00N 59°52' E 030°13'0 0.0
2017-Jun-26 04:30N 59°52' E 030°13'1 1.6
2017-Jun-26 04:00N 59°53' E 030°12'3 5.4
2017-Jun-26 03:30N 59°54' E 030°07'5 9.6
2017-Jun-26 03:00N 59°56' E 029°58'511.0
2017-Jun-26 02:30N 59°58' E 029°48'510.8
2017-Jun-26 02:00N 60°00' E 029°38'611.5
2017-Jun-26 01:30N 60°02' E 029°27'4 8.5
2017-Jun-26 00:59N 60°02' E 029°18'4 8.1
2017-Jun-26 00:28N 60°02' E 029°10'4 8.1
2017-Jun-26 00:00N 60°02' E 029°02'4 8.2
2017-Jun-25 23:30N 60°02' E 028°54'4 8.1
2017-Jun-25 23:00N 60°02' E 028°46'4 8.2
2017-Jun-25 22:30N 60°02' E 028°38'510.1
2017-Jun-25 22:00N 60°03' E 028°28'713.2
2017-Jun-25 21:30N 60°07' E 028°17'713.2
2017-Jun-25 21:00N 60°09' E 028°04'713.2
2017-Jun-25 20:30N 60°10' E 027°51'612.0
2017-Jun-25 20:00N 60°09' E 027°40'713.1
2017-Jun-25 19:30N 60°06' E 027°29'713.1
2017-Jun-25 19:00N 60°02' E 027°17'713.1
2017-Jun-25 18:30N 59°59' E 027°06'612.5
2017-Jun-25 18:00N 59°59' E 026°54'613.0
2017-Jun-25 17:30N 59°59' E 026°41'713.0
2017-Jun-25 17:00N 59°58' E 026°28'613.0
2017-Jun-25 16:30N 59°56' E 026°16'612.9
2017-Jun-25 16:00N 59°54' E 026°03'612.5
2017-Jun-25 15:30N 59°53' E 025°51'612.6
2017-Jun-25 15:00N 59°51' E 025°39'612.8
2017-Jun-25 14:30N 59°50' E 025°26'1312.9
2017-Jun-25 13:30N 59°48' E 025°01'613.0
2017-Jun-25 13:00N 59°46' E 024°49'713.0
2017-Jun-25 12:30N 59°45' E 024°36'713.0
2017-Jun-25 12:00N 59°44' E 024°23'613.0
2017-Jun-25 11:30N 59°42' E 024°11'713.2
2017-Jun-25 11:00N 59°40' E 023°59'713.2
2017-Jun-25 10:30N 59°38' E 023°46'713.1
2017-Jun-25 10:00N 59°36' E 023°34'612.9
2017-Jun-25 09:30N 59°33' E 023°22'713.5
2017-Jun-25 09:00N 59°31' E 023°09'713.4
2017-Jun-25 08:30N 59°29' E 022°57'713.5
2017-Jun-25 08:00N 59°27' E 022°45'713.3
2017-Jun-25 07:30N 59°24' E 022°33'713.6
2017-Jun-25 07:00N 59°20' E 022°22'713.6
2017-Jun-25 06:30N 59°16' E 022°11'713.7
2017-Jun-25 06:01N 59°11' E 022°01'713.7
2017-Jun-25 05:31N 59°07' E 021°50'713.4
2017-Jun-25 05:01N 59°02' E 021°42'713.2
2017-Jun-25 04:31N 58°57' E 021°34'713.2
2017-Jun-25 04:00N 58°52' E 021°27'613.0
2017-Jun-25 03:30N 58°46' E 021°19'1413.1
2017-Jun-25 02:26N 58°35' E 021°04'713.4
2017-Jun-25 01:53N 58°29' E 020°56'613.3
2017-Jun-25 01:26N 58°24' E 020°49'18012.9
2017-Jun-24 11:31N 56°11' E 017°05'013.9
2017-Jun-24 11:30N 56°11' E 017°04'713.8
2017-Jun-24 11:00N 56°07' E 016°55'713.9
2017-Jun-24 10:30N 56°03' E 016°45'713.8
2017-Jun-24 10:00N 55°59' E 016°35'713.8
2017-Jun-24 09:30N 55°56' E 016°24'714.0
2017-Jun-24 09:00N 55°52' E 016°12'714.0
2017-Jun-24 08:31N 55°49' E 016°02'714.0
2017-Jun-24 08:01N 55°46' E 015°51'713.9
2017-Jun-24 07:30N 55°43' E 015°39'714.2
2017-Jun-24 07:01N 55°39' E 015°29'714.1
2017-Jun-24 06:30N 55°36' E 015°18'714.0
2017-Jun-24 06:01N 55°32' E 015°07'714.0
2017-Jun-24 05:30N 55°29' E 014°56'714.0
2017-Jun-24 05:00N 55°26' E 014°45'713.6
2017-Jun-24 04:31N 55°22' E 014°36'713.7
2017-Jun-24 04:00N 55°16' E 014°28'713.5
2017-Jun-24 03:31N 55°11' E 014°20'612.2
2017-Jun-24 03:00N 55°10' E 014°10'713.6
2017-Jun-24 02:30N 55°11' E 013°58'713.5
2017-Jun-24 01:59N 55°12' E 013°46'713.8
2017-Jun-24 01:30N 55°12' E 013°34'714.0
2017-Jun-24 00:59N 55°13' E 013°21'713.9
2017-Jun-24 00:31N 55°14' E 013°10'713.9
2017-Jun-24 00:00N 55°15' E 012°58'713.8
2017-Jun-23 23:30N 55°16' E 012°46'612.3
2017-Jun-23 23:00N 55°20' E 012°38'713.5
2017-Jun-23 22:31N 55°27' E 012°40'612.6
2017-Jun-23 22:01N 55°33' E 012°42'612.5
2017-Jun-23 21:31N 55°39' E 012°41'612.7
2017-Jun-23 21:00N 55°46' E 012°41'713.1
2017-Jun-23 20:31N 55°52' E 012°40'612.7
2017-Jun-23 20:01N 55°59' E 012°41'612.1
2017-Jun-23 19:30N 56°04' E 012°37'612.6
2017-Jun-23 19:00N 56°08' E 012°27'713.2
2017-Jun-23 18:30N 56°12' E 012°18'713.5
2017-Jun-23 18:00N 56°16' E 012°08'4414.1
2017-Jun-23 14:54N 56°58' E 011°43'1314.6
2017-Jun-23 14:00N 57°10' E 011°36'714.2
2017-Jun-23 13:30N 57°17' E 011°32'714.2
2017-Jun-23 13:00N 57°24' E 011°28'713.6
2017-Jun-23 12:30N 57°29' E 011°21'713.8
2017-Jun-23 12:00N 57°34' E 011°11'713.8
2017-Jun-23 11:30N 57°36' E 010°59'713.6
2017-Jun-23 11:00N 57°39' E 010°48'4 4.4
2017-Jun-23 10:07N 57°41' E 010°41'0 0.0
2017-Jun-23 09:58N 57°41' E 010°41'0 0.0
2017-Jun-23 08:49N 57°41' E 010°41'0 0.0
2017-Jun-23 08:07N 57°41' E 010°41'0 0.0
2017-Jun-23 07:55N 57°41' E 010°41'0 0.0
2017-Jun-23 07:25N 57°41' E 010°41'0 0.0
2017-Jun-23 06:43N 57°41' E 010°41'0 0.0
2017-Jun-23 04:55N 57°41' E 010°41'0 0.0
2017-Jun-23 03:19N 57°41' E 010°41'0 0.0
2017-Jun-23 02:22N 57°41' E 010°41'0 0.0
2017-Jun-23 01:01N 57°41' E 010°41'0 0.0
2017-Jun-22 22:22N 57°41' E 010°41'0 0.0
2017-Jun-22 21:40N 57°41' E 010°41'0 0.0
2017-Jun-22 21:28N 57°41' E 010°41'0 0.0
2017-Jun-22 20:37N 57°41' E 010°41'0 0.0
2017-Jun-22 20:16N 57°41' E 010°41'0 0.0
2017-Jun-22 19:43N 57°41' E 010°41'0 0.0
2017-Jun-22 18:55N 57°41' E 010°41'0 0.0
2017-Jun-22 18:25N 57°41' E 010°41'0 0.0
2017-Jun-22 17:43N 57°41' E 010°41'0 0.0
2017-Jun-22 17:13N 57°41' E 010°41'0 0.0
2017-Jun-22 15:58N 57°41' E 010°41'0 0.0
2017-Jun-22 15:07N 57°41' E 010°41'0 0.0
2017-Jun-22 14:19N 57°41' E 010°41'0 0.0
2017-Jun-22 13:16N 57°41' E 010°41'0 0.0
2017-Jun-22 12:58N 57°41' E 010°41'0 0.0
2017-Jun-22 12:10N 57°41' E 010°41'0 0.0
2017-Jun-22 11:34N 57°41' E 010°41'0 0.0
2017-Jun-22 11:25N 57°41' E 010°41'0 0.0
2017-Jun-22 10:58N 57°41' E 010°41'0 0.0
2017-Jun-22 10:28N 57°41' E 010°41'0 0.1
2017-Jun-22 09:56N 57°41' E 010°41'2 5.1
2017-Jun-22 09:30N 57°42' E 010°44'5 9.3
2017-Jun-22 09:00N 57°47' E 010°43'714.8
2017-Jun-22 08:30N 57°47' E 010°29'714.2
2017-Jun-22 07:59N 57°47' E 010°16'714.0
2017-Jun-22 07:30N 57°46' E 010°03'714.2
2017-Jun-22 07:00N 57°45' E 009°49'714.0
2017-Jun-22 06:30N 57°45' E 009°37'714.2
2017-Jun-22 06:00N 57°45' E 009°23'714.4
2017-Jun-22 05:30N 57°44' E 009°09'714.7
2017-Jun-22 05:00N 57°44' E 008°56'814.6
2017-Jun-22 04:27N 57°43' E 008°41'614.4
2017-Jun-22 04:00N 57°42' E 008°29'1014.3
2017-Jun-22 03:19N 57°42' E 008°10'514.4
2017-Jun-22 02:59N 57°41' E 008°01'1514.0
2017-Jun-22 01:55N 57°42' E 007°33'614.1
2017-Jun-22 01:30N 57°42' E 007°22'714.0
2017-Jun-22 01:00N 57°42' E 007°09'713.9
2017-Jun-22 00:30N 57°42' E 006°57'714.3
2017-Jun-22 00:00N 57°42' E 006°43'714.1
2017-Jun-21 23:29N 57°45' E 006°31'713.7
2017-Jun-21 23:01N 57°49' E 006°21'713.3
2017-Jun-21 22:29N 57°54' E 006°13'613.1
2017-Jun-21 22:00N 57°59' E 006°04'713.6
2017-Jun-21 21:30N 58°02' E 005°53'814.1
2017-Jun-21 20:54N 58°08' E 005°41'713.9
2017-Jun-21 20:26N 58°12' E 005°31'614.0
2017-Jun-21 19:59N 58°16' E 005°22'813.7
2017-Jun-21 19:25N 58°21' E 005°11'613.7
2017-Jun-21 19:00N 58°25' E 005°03'713.7
2017-Jun-21 18:31N 58°29' E 004°53'713.7
2017-Jun-21 18:00N 58°34' E 004°43'713.7
2017-Jun-21 17:29N 58°38' E 004°33'  
Track history (hours):
 
Tides and Currents Weather Stations Pressure Air Temp Water Temp Dewpoint Dewpoint Depression Visibility Wind Speed Wind Dir Waves Ship Positions

Green Lofoten

Last reported at 2017-Jun-26 22:30 UTC. Time now 2017-Jun-26 22:37 UTC.
Position N 59°52' E 030°13'.

Length 98 m; draft 5.6 m.

Type: Ship. MMSI: 212857000.

Date/timePositionNaut miles runAvg speedWind from/ knotsBaromVisibWave heightAir tempDewpointWater temp
2017-Jun-26 22:30N 59°52' E 030°13'0 0.0
2017-Jun-26 22:00N 59°52' E 030°13'0 0.0
2017-Jun-26 21:30N 59°52' E 030°13'0 0.0
2017-Jun-26 21:00N 59°52' E 030°13'0 0.0
2017-Jun-26 20:30N 59°52' E 030°13'0 0.0
2017-Jun-26 20:00N 59°52' E 030°13'0 0.0
2017-Jun-26 19:30N 59°52' E 030°13'0 0.0
2017-Jun-26 19:00N 59°52' E 030°13'0 0.0
2017-Jun-26 18:30N 59°52' E 030°13'0 0.0
2017-Jun-26 18:00N 59°52' E 030°13'0 0.0
2017-Jun-26 17:30N 59°52' E 030°13'0 0.0
2017-Jun-26 17:00N 59°52' E 030°13'0 0.0
2017-Jun-26 16:30N 59°52' E 030°13'0 0.0
2017-Jun-26 16:00N 59°52' E 030°13'0 0.0
2017-Jun-26 15:30N 59°52' E 030°13'0 0.0
2017-Jun-26 15:01N 59°52' E 030°13'0 0.0
2017-Jun-26 14:30N 59°52' E 030°13'0 0.0
2017-Jun-26 13:30N 59°52' E 030°13'0 0.0
2017-Jun-26 13:00N 59°52' E 030°13'0 0.0
2017-Jun-26 12:30N 59°52' E 030°13'0 0.0
2017-Jun-26 12:00N 59°52' E 030°13'0 0.0
2017-Jun-26 11:30N 59°52' E 030°13'0 0.0
2017-Jun-26 11:00N 59°52' E 030°13'0 0.0
2017-Jun-26 10:30N 59°52' E 030°13'0 0.0
2017-Jun-26 10:00N 59°52' E 030°13'0 0.0
2017-Jun-26 09:30N 59°52' E 030°13'0 0.0
2017-Jun-26 09:00N 59°52' E 030°13'0 0.0
2017-Jun-26 08:31N 59°52' E 030°13'0 0.0
2017-Jun-26 08:00N 59°52' E 030°13'0 0.0
2017-Jun-26 07:30N 59°52' E 030°13'0 0.0
2017-Jun-26 07:00N 59°52' E 030°13'0 0.0
2017-Jun-26 06:30N 59°52' E 030°13'0 0.0
2017-Jun-26 06:00N 59°52' E 030°13'0 0.0
2017-Jun-26 05:30N 59°52' E 030°13'0 0.0
2017-Jun-26 05:00N 59°52' E 030°13'0 0.0
2017-Jun-26 04:30N 59°52' E 030°13'1 1.6
2017-Jun-26 04:00N 59°53' E 030°12'3 5.4
2017-Jun-26 03:30N 59°54' E 030°07'5 9.6
2017-Jun-26 03:00N 59°56' E 029°58'511.0
2017-Jun-26 02:30N 59°58' E 029°48'510.8
2017-Jun-26 02:00N 60°00' E 029°38'611.5
2017-Jun-26 01:30N 60°02' E 029°27'4 8.5
2017-Jun-26 00:59N 60°02' E 029°18'4 8.1
2017-Jun-26 00:28N 60°02' E 029°10'4 8.1
2017-Jun-26 00:00N 60°02' E 029°02'4 8.2
2017-Jun-25 23:30N 60°02' E 028°54'4 8.1
2017-Jun-25 23:00N 60°02' E 028°46'4 8.2
2017-Jun-25 22:30N 60°02' E 028°38'510.1
2017-Jun-25 22:00N 60°03' E 028°28'713.2
2017-Jun-25 21:30N 60°07' E 028°17'713.2
2017-Jun-25 21:00N 60°09' E 028°04'713.2
2017-Jun-25 20:30N 60°10' E 027°51'612.0
2017-Jun-25 20:00N 60°09' E 027°40'713.1
2017-Jun-25 19:30N 60°06' E 027°29'713.1
2017-Jun-25 19:00N 60°02' E 027°17'713.1
2017-Jun-25 18:30N 59°59' E 027°06'612.5
2017-Jun-25 18:00N 59°59' E 026°54'613.0
2017-Jun-25 17:30N 59°59' E 026°41'713.0
2017-Jun-25 17:00N 59°58' E 026°28'613.0
2017-Jun-25 16:30N 59°56' E 026°16'612.9
2017-Jun-25 16:00N 59°54' E 026°03'612.5
2017-Jun-25 15:30N 59°53' E 025°51'612.6
2017-Jun-25 15:00N 59°51' E 025°39'612.8
2017-Jun-25 14:30N 59°50' E 025°26'1312.9
2017-Jun-25 13:30N 59°48' E 025°01'613.0
2017-Jun-25 13:00N 59°46' E 024°49'713.0
2017-Jun-25 12:30N 59°45' E 024°36'713.0
2017-Jun-25 12:00N 59°44' E 024°23'613.0
2017-Jun-25 11:30N 59°42' E 024°11'713.2
2017-Jun-25 11:00N 59°40' E 023°59'713.2
2017-Jun-25 10:30N 59°38' E 023°46'713.1
2017-Jun-25 10:00N 59°36' E 023°34'612.9
2017-Jun-25 09:30N 59°33' E 023°22'713.5
2017-Jun-25 09:00N 59°31' E 023°09'713.4
2017-Jun-25 08:30N 59°29' E 022°57'713.5
2017-Jun-25 08:00N 59°27' E 022°45'713.3
2017-Jun-25 07:30N 59°24' E 022°33'713.6
2017-Jun-25 07:00N 59°20' E 022°22'713.6
2017-Jun-25 06:30N 59°16' E 022°11'713.7
2017-Jun-25 06:01N 59°11' E 022°01'713.7
2017-Jun-25 05:31N 59°07' E 021°50'713.4
2017-Jun-25 05:01N 59°02' E 021°42'713.2
2017-Jun-25 04:31N 58°57' E 021°34'713.2
2017-Jun-25 04:00N 58°52' E 021°27'613.0
2017-Jun-25 03:30N 58°46' E 021°19'1413.1
2017-Jun-25 02:26N 58°35' E 021°04'713.4
2017-Jun-25 01:53N 58°29' E 020°56'613.3
2017-Jun-25 01:26N 58°24' E 020°49'18012.9
2017-Jun-24 11:31N 56°11' E 017°05'013.9
2017-Jun-24 11:30N 56°11' E 017°04'713.8
2017-Jun-24 11:00N 56°07' E 016°55'713.9
2017-Jun-24 10:30N 56°03' E 016°45'713.8
2017-Jun-24 10:00N 55°59' E 016°35'713.8
2017-Jun-24 09:30N 55°56' E 016°24'714.0
2017-Jun-24 09:00N 55°52' E 016°12'714.0
2017-Jun-24 08:31N 55°49' E 016°02'714.0
2017-Jun-24 08:01N 55°46' E 015°51'713.9
2017-Jun-24 07:30N 55°43' E 015°39'714.2
2017-Jun-24 07:01N 55°39' E 015°29'714.1
2017-Jun-24 06:30N 55°36' E 015°18'714.0
2017-Jun-24 06:01N 55°32' E 015°07'714.0
2017-Jun-24 05:30N 55°29' E 014°56'714.0
2017-Jun-24 05:00N 55°26' E 014°45'713.6
2017-Jun-24 04:31N 55°22' E 014°36'713.7
2017-Jun-24 04:00N 55°16' E 014°28'713.5
2017-Jun-24 03:31N 55°11' E 014°20'612.2
2017-Jun-24 03:00N 55°10' E 014°10'713.6
2017-Jun-24 02:30N 55°11' E 013°58'713.5
2017-Jun-24 01:59N 55°12' E 013°46'713.8
2017-Jun-24 01:30N 55°12' E 013°34'714.0
2017-Jun-24 00:59N 55°13' E 013°21'713.9
2017-Jun-24 00:31N 55°14' E 013°10'713.9
2017-Jun-24 00:00N 55°15' E 012°58'713.8
2017-Jun-23 23:30N 55°16' E 012°46'612.3
2017-Jun-23 23:00N 55°20' E 012°38'713.5
2017-Jun-23 22:31N 55°27' E 012°40'612.6
2017-Jun-23 22:01N 55°33' E 012°42'612.5
2017-Jun-23 21:31N 55°39' E 012°41'612.7
2017-Jun-23 21:00N 55°46' E 012°41'713.1
2017-Jun-23 20:31N 55°52' E 012°40'612.7
2017-Jun-23 20:01N 55°59' E 012°41'612.1
2017-Jun-23 19:30N 56°04' E 012°37'612.6
2017-Jun-23 19:00N 56°08' E 012°27'713.2
2017-Jun-23 18:30N 56°12' E 012°18'713.5
2017-Jun-23 18:00N 56°16' E 012°08'4414.1
2017-Jun-23 14:54N 56°58' E 011°43'1314.6
2017-Jun-23 14:00N 57°10' E 011°36'714.2
2017-Jun-23 13:30N 57°17' E 011°32'714.2
2017-Jun-23 13:00N 57°24' E 011°28'713.6
2017-Jun-23 12:30N 57°29' E 011°21'713.8
2017-Jun-23 12:00N 57°34' E 011°11'713.8
2017-Jun-23 11:30N 57°36' E 010°59'713.6
2017-Jun-23 11:00N 57°39' E 010°48'4 4.4
2017-Jun-23 10:07N 57°41' E 010°41'0 0.0
2017-Jun-23 09:58N 57°41' E 010°41'0 0.0
2017-Jun-23 08:49N 57°41' E 010°41'0 0.0
2017-Jun-23 08:07N 57°41' E 010°41'0 0.0
2017-Jun-23 07:55N 57°41' E 010°41'0 0.0
2017-Jun-23 07:25N 57°41' E 010°41'0 0.0
2017-Jun-23 06:43N 57°41' E 010°41'0 0.0
2017-Jun-23 04:55N 57°41' E 010°41'0 0.0
2017-Jun-23 03:19N 57°41' E 010°41'0 0.0
2017-Jun-23 02:22N 57°41' E 010°41'0 0.0
2017-Jun-23 01:01N 57°41' E 010°41'0 0.0
2017-Jun-22 22:22N 57°41' E 010°41'0 0.0
2017-Jun-22 21:40N 57°41' E 010°41'0 0.0
2017-Jun-22 21:28N 57°41' E 010°41'0 0.0
2017-Jun-22 20:37N 57°41' E 010°41'0 0.0
2017-Jun-22 20:16N 57°41' E 010°41'0 0.0
2017-Jun-22 19:43N 57°41' E 010°41'0 0.0
2017-Jun-22 18:55N 57°41' E 010°41'0 0.0
2017-Jun-22 18:25N 57°41' E 010°41'0 0.0
2017-Jun-22 17:43N 57°41' E 010°41'0 0.0
2017-Jun-22 17:13N 57°41' E 010°41'0 0.0
2017-Jun-22 15:58N 57°41' E 010°41'0 0.0
2017-Jun-22 15:07N 57°41' E 010°41'0 0.0
2017-Jun-22 14:19N 57°41' E 010°41'0 0.0
2017-Jun-22 13:16N 57°41' E 010°41'0 0.0
2017-Jun-22 12:58N 57°41' E 010°41'0 0.0
2017-Jun-22 12:10N 57°41' E 010°41'0 0.0
2017-Jun-22 11:34N 57°41' E 010°41'0 0.0
2017-Jun-22 11:25N 57°41' E 010°41'0 0.0
2017-Jun-22 10:58N 57°41' E 010°41'0 0.0
2017-Jun-22 10:28N 57°41' E 010°41'0 0.1
2017-Jun-22 09:56N 57°41' E 010°41'2 5.1
2017-Jun-22 09:30N 57°42' E 010°44'5 9.3
2017-Jun-22 09:00N 57°47' E 010°43'714.8
2017-Jun-22 08:30N 57°47' E 010°29'714.2
2017-Jun-22 07:59N 57°47' E 010°16'714.0
2017-Jun-22 07:30N 57°46' E 010°03'714.2
2017-Jun-22 07:00N 57°45' E 009°49'714.0
2017-Jun-22 06:30N 57°45' E 009°37'714.2
2017-Jun-22 06:00N 57°45' E 009°23'714.4
2017-Jun-22 05:30N 57°44' E 009°09'714.7
2017-Jun-22 05:00N 57°44' E 008°56'814.6
2017-Jun-22 04:27N 57°43' E 008°41'614.4
2017-Jun-22 04:00N 57°42' E 008°29'1014.3
2017-Jun-22 03:19N 57°42' E 008°10'514.4
2017-Jun-22 02:59N 57°41' E 008°01'1514.0
2017-Jun-22 01:55N 57°42' E 007°33'614.1
2017-Jun-22 01:30N 57°42' E 007°22'714.0
2017-Jun-22 01:00N 57°42' E 007°09'713.9
2017-Jun-22 00:30N 57°42' E 006°57'714.3
2017-Jun-22 00:00N 57°42' E 006°43'714.1
2017-Jun-21 23:29N 57°45' E 006°31'713.7
2017-Jun-21 23:01N 57°49' E 006°21'713.3
2017-Jun-21 22:29N 57°54' E 006°13'613.1
2017-Jun-21 22:00N 57°59' E 006°04'713.6
2017-Jun-21 21:30N 58°02' E 005°53'814.1
2017-Jun-21 20:54N 58°08' E 005°41'713.9
2017-Jun-21 20:26N 58°12' E 005°31'614.0
2017-Jun-21 19:59N 58°16' E 005°22'813.7
2017-Jun-21 19:25N 58°21' E 005°11'613.7
2017-Jun-21 19:00N 58°25' E 005°03'713.7
2017-Jun-21 18:31N 58°29' E 004°53'713.7
2017-Jun-21 18:00N 58°34' E 004°43'713.7
2017-Jun-21 17:29N 58°38' E 004°33'  

Dump ship's entire track history